Time;durP1;ratioP1;P1;durP2;ratioP2;P2;SDS_P1;SDS_P2;PMS_P1;PMS_P2;Temp;Humidity;BMP_temperature;BMP_pressure;BME280_temperature;BME280_humidity;BME280_pressure;Samples;Min_cycle;Max_cycle;Signal;HPM_P1;HPM_P2
2022/07/21 00:01:24;;;;;;;7.20;3.60;;;24.00;99.90;;;;;;4905789;29;20036;-92
2022/07/21 00:03:54;;;;;;;10.85;4.05;;;24.00;99.90;;;;;;4934424;29;20043;-92
2022/07/21 00:06:21;;;;;;;5.97;3.60;;;24.00;99.90;;;;;;4917170;29;20059;-93
2022/07/21 00:08:48;;;;;;;8.57;3.85;;;24.00;99.90;;;;;;4917357;29;20028;-91
2022/07/21 00:11:16;;;;;;;6.30;3.60;;;24.00;99.90;;;;;;4934602;29;20091;-91
2022/07/21 00:14:06;;;;;;;8.27;4.43;;;24.00;99.90;;;;;;4917761;29;20053;-92
2022/07/21 00:16:33;;;;;;;5.47;3.53;;;24.00;99.90;;;;;;4933334;29;20032;-92
2022/07/21 00:19:00;;;;;;;8.45;3.85;;;24.00;99.90;;;;;;4933543;29;20134;-91
2022/07/21 00:21:29;;;;;;;4.97;3.70;;;24.00;99.90;;;;;;4901211;29;20048;-92
2022/07/21 00:23:56;;;;;;;6.47;3.40;;;24.00;99.90;;;;;;4901517;29;20486;-91
2022/07/21 00:26:26;;;;;;;8.48;4.35;;;23.90;99.90;;;;;;4901512;29;20537;-92
2022/07/21 00:28:53;;;;;;;5.55;3.90;;;23.90;99.90;;;;;;4902041;29;20039;-91
2022/07/21 00:31:20;;;;;;;10.15;4.65;;;23.90;99.90;;;;;;4901308;29;20490;-93
2022/07/21 00:33:50;;;;;;;4.82;3.85;;;23.90;99.90;;;;;;4902116;29;20048;-92
2022/07/21 00:36:19;;;;;;;6.75;4.05;;;23.90;99.90;;;;;;4901555;29;20032;-92
2022/07/21 00:38:51;;;;;;;8.27;3.97;;;23.90;99.90;;;;;;4933341;29;20040;-91
2022/07/21 00:41:18;;;;;;;6.32;4.18;;;23.90;99.90;;;;;;4900953;29;20040;-91
2022/07/21 00:43:45;;;;;;;8.88;4.53;;;23.90;99.90;;;;;;4906473;29;20112;-92
2022/07/21 00:46:12;;;;;;;7.22;4.70;;;23.80;99.90;;;;;;4921460;29;20035;-90
2022/07/21 00:48:40;;;;;;;11.13;5.68;;;23.70;99.90;;;;;;4932269;29;20059;-92
2022/07/21 00:51:07;;;;;;;6.22;4.25;;;23.70;99.90;;;;;;4911977;29;20387;-91
2022/07/21 00:53:34;;;;;;;6.45;4.95;;;23.60;99.90;;;;;;4935234;29;20020;-92
2022/07/21 00:56:09;;;;;;;8.55;4.55;;;23.60;99.90;;;;;;4934292;29;20474;-91
2022/07/21 00:58:36;;;;;;;10.80;4.35;;;23.60;99.90;;;;;;4950555;29;20034;-90
2022/07/21 01:01:03;;;;;;;9.15;4.78;;;23.60;99.90;;;;;;4949802;29;20071;-91
2022/07/21 01:03:34;;;;;;;10.15;4.78;;;23.60;99.90;;;;;;4934467;29;20056;-93
2022/07/21 01:06:02;;;;;;;9.80;4.88;;;23.60;99.90;;;;;;4934650;29;20486;-92
2022/07/21 01:08:32;;;;;;;6.82;4.50;;;23.60;99.90;;;;;;4930040;29;20071;-91
2022/07/21 01:11:01;;;;;;;13.55;4.28;;;23.60;99.90;;;;;;4930453;29;20035;-92
2022/07/21 01:13:30;;;;;;;5.63;4.30;;;23.60;99.90;;;;;;4950466;29;20024;-91
2022/07/21 01:15:58;;;;;;;8.13;4.47;;;23.50;99.90;;;;;;4934396;29;20545;-91
2022/07/21 01:18:29;;;;;;;5.97;4.15;;;23.50;99.90;;;;;;4950575;29;20033;-91
2022/07/21 01:21:02;;;;;;;9.23;4.82;;;23.40;99.90;;;;;;4930048;29;20044;-91
2022/07/21 01:23:31;;;;;;;7.03;4.47;;;23.40;99.90;;;;;;4916936;29;20036;-91
2022/07/21 01:25:59;;;;;;;10.43;4.70;;;23.30;99.90;;;;;;4931666;29;20096;-91
2022/07/21 01:28:26;;;;;;;6.68;4.95;;;23.20;99.90;;;;;;4914308;29;20090;-91
2022/07/21 01:30:53;;;;;;;11.18;4.97;;;23.20;99.90;;;;;;4946711;29;20040;-90
2022/07/21 01:33:20;;;;;;;11.55;4.85;;;23.10;99.90;;;;;;4947721;29;20036;-89
2022/07/21 01:35:47;;;;;;;7.88;4.97;;;23.10;99.90;;;;;;4947268;29;20032;-91
2022/07/21 01:43:45;;;;;;;9.60;5.10;;;23.10;99.90;;;;;;4938939;29;20044;-90
2022/07/21 01:46:15;;;;;;;12.85;5.35;;;23.00;99.90;;;;;;4916137;29;20036;-93
2022/07/21 01:48:49;;;;;;;8.20;5.65;;;23.10;99.90;;;;;;4930715;29;20042;-90
2022/07/21 01:51:16;;;;;;;6.65;5.65;;;23.10;99.90;;;;;;4898824;29;20043;-90
2022/07/21 01:53:44;;;;;;;8.10;5.85;;;23.00;99.90;;;;;;4911485;29;20028;-90
2022/07/21 01:56:11;;;;;;;14.35;6.35;;;23.00;99.90;;;;;;4929340;29;20104;-91
2022/07/21 01:58:39;;;;;;;10.52;6.22;;;23.00;99.90;;;;;;4885449;29;20036;-90
2022/07/21 02:01:06;;;;;;;8.57;6.47;;;23.00;99.90;;;;;;4899532;29;20047;-91
2022/07/21 02:03:33;;;;;;;9.93;6.80;;;22.90;99.90;;;;;;4930891;29;20031;-90
2022/07/21 02:06:07;;;;;;;13.20;7.35;;;22.90;99.90;;;;;;4913227;29;20158;-91
2022/07/21 02:08:36;;;;;;;12.65;6.75;;;22.80;99.90;;;;;;4929766;29;20028;-90
2022/07/21 02:11:04;;;;;;;16.52;8.27;;;22.80;99.90;;;;;;4910855;29;20024;-91
2022/07/21 02:13:31;;;;;;;11.98;7.80;;;22.80;99.90;;;;;;4913712;29;20028;-91
2022/07/21 02:15:58;;;;;;;12.50;8.30;;;22.80;99.90;;;;;;4909877;29;20406;-90
2022/07/21 02:18:25;;;;;;;16.63;8.93;;;22.80;99.90;;;;;;4913111;29;20030;-90
2022/07/21 02:20:51;;;;;;;19.33;8.77;;;22.70;99.90;;;;;;4922336;29;20040;-90
2022/07/21 02:23:19;;;;;;;12.70;7.93;;;22.80;99.90;;;;;;4906976;29;20099;-90
2022/07/21 02:25:51;;;;;;;14.38;9.30;;;22.80;99.90;;;;;;4931517;29;20028;-90
2022/07/21 02:28:27;;;;;;;11.93;7.78;;;22.80;99.90;;;;;;4917191;29;20036;-90
2022/07/21 02:30:55;;;;;;;16.70;8.60;;;22.80;99.90;;;;;;4912201;29;20047;-90
2022/07/21 02:33:22;;;;;;;11.23;7.53;;;22.80;99.90;;;;;;4899677;29;20047;-89
2022/07/21 02:35:49;;;;;;;9.57;7.22;;;22.80;99.90;;;;;;4895044;29;20492;-91
2022/07/21 02:38:22;;;;;;;12.93;8.18;;;22.80;99.90;;;;;;4913546;29;20028;-91
2022/07/21 02:40:51;;;;;;;13.30;8.10;;;22.90;99.90;;;;;;4932344;29;20044;-91
2022/07/21 02:43:18;;;;;;;10.82;7.28;;;22.90;99.90;;;;;;4931267;29;20511;-90
2022/07/21 02:45:47;;;;;;;14.73;7.88;;;22.90;99.90;;;;;;4935929;29;20065;-91
2022/07/21 02:48:14;;;;;;;15.70;7.65;;;22.80;99.90;;;;;;4935976;29;20027;-90
2022/07/21 02:50:44;;;;;;;11.77;7.05;;;22.80;99.90;;;;;;4951385;29;20031;-91
2022/07/21 02:53:17;;;;;;;15.43;8.20;;;22.80;99.90;;;;;;4951745;29;20031;-91
2022/07/21 02:55:46;;;;;;;14.20;8.60;;;22.80;99.90;;;;;;4950383;29;20051;-91
2022/07/21 02:58:17;;;;;;;14.38;7.22;;;22.80;99.90;;;;;;4930646;29;20027;-91
2022/07/21 03:00:50;;;;;;;10.93;7.55;;;22.80;99.90;;;;;;4954149;29;20035;-90
2022/07/21 03:03:17;;;;;;;10.55;8.05;;;22.80;99.90;;;;;;4951325;29;20125;-91
2022/07/21 03:05:45;;;;;;;11.73;7.70;;;22.80;99.90;;;;;;4946085;29;20094;-91
2022/07/21 03:08:17;;;;;;;14.20;7.47;;;22.80;99.90;;;;;;4950320;29;20074;-90
2022/07/21 03:10:44;;;;;;;11.00;7.50;;;22.80;99.90;;;;;;4952576;29;20031;-90
2022/07/21 03:13:11;;;;;;;14.65;7.43;;;22.80;99.90;;;;;;4952158;29;20055;-91
2022/07/21 03:15:39;;;;;;;10.20;7.15;;;22.80;99.90;;;;;;4933549;29;20055;-91
2022/07/21 03:18:07;;;;;;;11.98;7.97;;;22.80;99.90;;;;;;4947565;29;20441;-91
2022/07/21 03:20:37;;;;;;;13.85;8.65;;;22.80;99.90;;;;;;4926296;29;20063;-89
2022/07/21 03:23:04;;;;;;;10.30;7.43;;;22.70;99.90;;;;;;4943723;29;20035;-90
2022/07/21 03:25:35;;;;;;;9.07;7.78;;;22.70;99.90;;;;;;4927508;29;20023;-91
2022/07/21 03:28:02;;;;;;;10.95;7.80;;;22.70;99.90;;;;;;4950390;29;20035;-91
2022/07/21 03:30:29;;;;;;;11.20;7.53;;;22.60;99.90;;;;;;4949426;29;20113;-90
2022/07/21 03:32:57;;;;;;;11.63;7.18;;;22.60;99.90;;;;;;4951391;29;20023;-91
2022/07/21 03:35:27;;;;;;;14.35;7.78;;;22.60;99.90;;;;;;4934758;29;20027;-90
2022/07/21 03:37:57;;;;;;;11.85;8.07;;;22.70;99.90;;;;;;4949278;29;20031;-91
2022/07/21 03:40:28;;;;;;;13.27;6.63;;;22.70;99.90;;;;;;4949368;29;20405;-90
2022/07/21 03:42:58;;;;;;;9.00;7.60;;;22.70;99.90;;;;;;4947458;29;20048;-90
2022/07/21 03:45:29;;;;;;;11.32;6.53;;;22.70;99.90;;;;;;4931075;29;20031;-91
2022/07/21 03:47:58;;;;;;;10.88;6.90;;;22.70;99.90;;;;;;4946538;29;20027;-91
2022/07/21 03:50:27;;;;;;;9.10;6.68;;;22.80;99.90;;;;;;4931109;29;20028;-90
2022/07/21 03:52:54;;;;;;;10.00;6.57;;;22.80;99.90;;;;;;4949957;29;20119;-90
2022/07/21 03:55:22;;;;;;;11.48;6.88;;;22.80;99.90;;;;;;4964621;29;20023;-91
2022/07/21 03:57:58;;;;;;;10.82;6.70;;;22.90;99.90;;;;;;4948399;29;20034;-90
2022/07/21 04:00:37;;;;;;;10.93;6.45;;;22.80;99.90;;;;;;4947732;29;20051;-90
2022/07/21 04:03:05;;;;;;;10.00;6.10;;;22.80;99.90;;;;;;4949843;29;20099;-92
2022/07/21 04:05:34;;;;;;;9.10;6.43;;;22.80;99.90;;;;;;4931347;29;20055;-92
2022/07/21 04:08:02;;;;;;;8.80;5.90;;;22.80;99.90;;;;;;4965797;29;20059;-92
2022/07/21 04:10:33;;;;;;;7.35;6.00;;;22.90;99.90;;;;;;4945932;29;20028;-92
2022/07/21 04:13:02;;;;;;;7.10;5.60;;;22.90;99.90;;;;;;4946080;29;20043;-90
2022/07/21 04:15:29;;;;;;;11.35;5.28;;;23.00;99.90;;;;;;4946747;29;20020;-91
2022/07/21 04:17:56;;;;;;;7.22;5.13;;;23.00;99.90;;;;;;4947724;29;20064;-90
2022/07/21 04:20:23;;;;;;;9.82;5.35;;;23.10;99.90;;;;;;4947314;29;20038;-90
2022/07/21 04:22:59;;;;;;;10.73;5.25;;;23.10;99.90;;;;;;4947889;29;20062;-90
2022/07/21 04:25:26;;;;;;;9.30;4.95;;;23.20;99.90;;;;;;4946618;29;20031;-91
2022/07/21 04:27:53;;;;;;;11.32;5.22;;;23.30;99.90;;;;;;4946059;29;20497;-90
2022/07/21 04:30:21;;;;;;;7.40;4.32;;;23.40;99.90;;;;;;4943903;29;20036;-91
2022/07/21 04:32:52;;;;;;;9.63;4.18;;;23.50;99.90;;;;;;4931871;29;20437;-90
2022/07/21 04:35:19;;;;;;;10.10;4.00;;;23.70;99.90;;;;;;4931219;29;20028;-91
2022/07/21 04:37:46;;;;;;;9.38;4.00;;;23.80;99.90;;;;;;4946038;29;20027;-90
2022/07/21 04:40:14;;;;;;;4.80;3.90;;;23.90;99.90;;;;;;4929243;29;20143;-90
2022/07/21 04:42:42;;;;;;;10.15;3.95;;;24.20;99.90;;;;;;4930100;29;20059;-91
2022/07/21 04:45:11;;;;;;;7.90;3.90;;;24.50;99.90;;;;;;4946561;29;20031;-90
2022/07/21 04:47:55;;;;;;;7.30;3.83;;;24.80;99.90;;;;;;4931832;29;20031;-91
2022/07/21 04:50:27;;;;;;;5.95;3.60;;;25.60;99.90;;;;;;4947393;29;20028;-90
2022/07/21 04:52:55;;;;;;;8.55;3.55;;;26.90;99.90;;;;;;4931356;29;20074;-91
2022/07/21 04:55:22;;;;;;;4.05;3.50;;;28.30;99.90;;;;;;4948339;29;20023;-91
2022/07/21 04:57:51;;;;;;;10.02;3.78;;;28.90;99.90;;;;;;4951102;29;20035;-91
2022/07/21 05:00:21;;;;;;;8.55;4.10;;;29.70;99.90;;;;;;4934116;29;20481;-90
2022/07/21 05:02:49;;;;;;;6.55;3.88;;;30.10;99.90;;;;;;4949828;29;20031;-91
2022/07/21 05:05:16;;;;;;;7.45;3.70;;;29.90;99.90;;;;;;4935347;29;20034;-91
2022/07/21 05:07:43;;;;;;;6.18;4.38;;;30.40;99.90;;;;;;4933179;29;20027;-91
2022/07/21 05:10:14;;;;;;;8.40;5.43;;;30.70;99.90;;;;;;4947515;29;20089;-91
2022/07/21 05:12:41;;;;;;;10.82;6.32;;;31.20;99.90;;;;;;4950763;29;20085;-92
2022/07/21 05:15:12;;;;;;;14.20;7.00;;;31.20;99.90;;;;;;4950511;29;20034;-93
2022/07/21 05:17:40;;;;;;;12.35;7.75;;;31.60;99.90;;;;;;4951089;29;20038;-91
2022/07/21 05:20:09;;;;;;;14.50;8.07;;;31.70;99.90;;;;;;4917990;29;20046;-91
2022/07/21 05:22:35;;;;;;;13.98;7.50;;;32.30;99.90;;;;;;4951106;29;20043;-91
2022/07/21 05:25:03;;;;;;;10.80;7.45;;;32.50;99.90;;;;;;4946830;29;20027;-93
2022/07/21 05:27:29;;;;;;;9.18;7.53;;;32.50;99.90;;;;;;4924406;29;20039;-94
2022/07/21 05:29:56;;;;;;;10.82;8.10;;;32.70;99.90;;;;;;4940028;29;20031;-93
2022/07/21 05:32:22;;;;;;;15.90;8.15;;;33.20;99.90;;;;;;4924301;29;20114;-93
2022/07/21 05:34:48;;;;;;;10.07;8.27;;;33.10;99.90;;;;;;4940120;29;20117;-93
2022/07/21 05:37:18;;;;;;;13.00;8.18;;;33.50;99.90;;;;;;4939992;29;20027;-92
2022/07/21 05:39:45;;;;;;;10.18;9.13;;;33.30;99.90;;;;;;4940265;29;20023;-94
2022/07/21 05:42:11;;;;;;;16.25;9.60;;;33.00;99.90;;;;;;4924213;29;20042;-93
2022/07/21 05:44:38;;;;;;;14.77;10.20;;;32.90;99.90;;;;;;4917979;29;20574;-93
2022/07/21 05:47:05;;;;;;;11.35;10.00;;;33.60;99.90;;;;;;4887439;29;20039;-93
2022/07/21 05:49:32;;;;;;;11.52;10.48;;;33.20;99.90;;;;;;4903367;29;20032;-93
2022/07/21 05:51:58;;;;;;;15.85;11.77;;;33.10;99.90;;;;;;4886420;29;20047;-94
2022/07/21 05:54:25;;;;;;;11.82;10.73;;;33.50;99.90;;;;;;4917747;29;20032;-93
2022/07/21 05:56:51;;;;;;;11.57;10.32;;;33.80;99.90;;;;;;4902137;29;20035;-93
2022/07/21 05:59:18;;;;;;;13.38;10.90;;;33.30;99.90;;;;;;4901952;29;20431;-94
2022/07/21 06:01:45;;;;;;;16.30;10.43;;;33.20;99.90;;;;;;4886150;29;20068;-92
2022/07/21 06:04:11;;;;;;;10.90;9.90;;;33.50;99.90;;;;;;4887912;29;20032;-93
2022/07/21 06:06:38;;;;;;;11.25;10.10;;;33.40;99.90;;;;;;4918779;29;20434;-93
2022/07/21 06:09:07;;;;;;;11.90;10.75;;;33.60;99.90;;;;;;4901783;29;20032;-93
2022/07/21 06:11:37;;;;;;;11.82;10.88;;;34.10;99.90;;;;;;4902380;29;20032;-91
2022/07/21 06:14:04;;;;;;;14.05;10.40;;;34.50;99.90;;;;;;5114348;23;20059;-90
2022/07/21 06:16:31;;;;;;;12.10;10.32;;;34.60;99.90;;;;;;4939540;29;20095;-88
2022/07/21 06:18:58;;;;;;;11.23;10.20;;;34.50;99.90;;;;;;4936173;29;20114;-88
2022/07/21 06:21:24;;;;;;;13.48;10.77;;;34.20;99.90;;;;;;4920279;29;20179;-91
2022/07/21 06:23:50;;;;;;;11.48;10.60;;;34.30;99.90;;;;;;4920242;29;20038;-92
2022/07/21 06:26:17;;;;;;;12.07;10.77;;;34.90;99.90;;;;;;4935709;29;20056;-89
2022/07/21 06:28:44;;;;;;;12.25;11.45;;;35.10;99.90;;;;;;4920305;29;20024;-90
2022/07/21 06:31:10;;;;;;;12.20;11.32;;;35.10;99.90;;;;;;4926977;29;20027;-90
2022/07/21 06:33:36;;;;;;;12.52;11.82;;;35.00;99.90;;;;;;4902878;29;20379;-92
2022/07/21 06:36:03;;;;;;;12.40;11.40;;;35.10;99.90;;;;;;4928339;29;20032;-90
2022/07/21 06:38:29;;;;;;;12.07;11.18;;;35.00;99.90;;;;;;4901189;29;20024;-90
2022/07/21 06:40:56;;;;;;;12.10;11.25;;;35.30;99.90;;;;;;4901290;29;20036;-88
2022/07/21 06:43:22;;;;;;;12.73;11.70;;;35.80;99.90;;;;;;4910766;29;20130;-92
2022/07/21 06:45:50;;;;;;;11.55;10.85;;;35.50;99.90;;;;;;4936413;29;20030;-91
2022/07/21 06:48:17;;;;;;;12.40;11.50;;;35.10;99.90;;;;;;4935715;29;20092;-89
2022/07/21 06:50:43;;;;;;;13.05;12.02;;;35.50;99.90;;;;;;4936028;29;20048;-88
2022/07/21 06:53:10;;;;;;;12.40;11.50;;;35.80;99.90;;;;;;4935092;29;20541;-88
2022/07/21 06:55:36;;;;;;;11.85;11.13;;;35.70;99.90;;;;;;4935632;29;20042;-88
2022/07/21 06:58:18;;;;;;;12.23;11.32;;;34.70;99.90;;;;;;4919827;29;20115;-89
2022/07/21 07:00:46;;;;;;;12.65;11.70;;;34.40;99.90;;;;;;4936077;29;20068;-89
2022/07/21 07:03:16;;;;;;;11.48;10.73;;;35.00;99.90;;;;;;4937130;29;20027;-93
2022/07/21 07:05:58;;;;;;;11.80;11.00;;;34.70;99.90;;;;;;4920693;29;20087;-93
2022/07/21 07:08:32;;;;;;;11.75;10.93;;;34.60;99.90;;;;;;4921260;29;20036;-93
2022/07/21 07:11:11;;;;;;;11.98;11.18;;;34.40;99.90;;;;;;4936657;29;20044;-94
2022/07/21 07:14:05;;;;;;;12.63;11.82;;;34.90;99.90;;;;;;4938195;28;20099;-94
2022/07/21 07:16:44;;;;;;;12.70;11.43;;;35.30;99.90;;;;;;4936878;29;20032;-95
2022/07/21 07:19:34;;;;;;;12.27;11.48;;;35.40;99.90;;;;;;4952295;29;20107;-93
2022/07/21 07:22:15;;;;;;;11.98;11.23;;;35.70;99.90;;;;;;4921306;29;20067;-94
2022/07/21 07:24:44;;;;;;;11.90;11.05;;;35.80;99.90;;;;;;4952111;29;20036;-93
2022/07/21 07:27:12;;;;;;;12.07;11.27;;;35.30;99.90;;;;;;4956411;28;20031;-95
2022/07/21 07:29:46;;;;;;;12.10;11.38;;;35.30;99.90;;;;;;4956416;29;20462;-93
2022/07/21 07:32:21;;;;;;;12.60;11.63;;;35.40;99.90;;;;;;4955310;29;20028;-93
2022/07/21 07:35:07;;;;;;;12.77;11.90;;;35.50;99.90;;;;;;4955456;29;20042;-93
2022/07/21 07:37:55;;;;;;;12.60;11.60;;;35.40;99.90;;;;;;4925292;29;20091;-94
2022/07/21 07:40:33;;;;;;;13.25;12.25;;;35.60;99.90;;;;;;4942370;29;20036;-92
2022/07/21 07:43:00;;;;;;;12.43;11.82;;;35.30;99.90;;;;;;4940392;29;20056;-93
2022/07/21 07:45:27;;;;;;;12.77;11.93;;;35.10;99.90;;;;;;4940489;29;20473;-94
2022/07/21 07:47:54;;;;;;;12.82;11.85;;;35.00;99.90;;;;;;4939660;29;20032;-93
2022/07/21 07:50:22;;;;;;;13.52;12.43;;;35.30;99.90;;;;;;4939192;29;20031;-93
2022/07/21 07:52:49;;;;;;;13.65;12.82;;;35.70;99.90;;;;;;4939620;29;20031;-94
2022/07/21 07:55:27;;;;;;;12.55;11.85;;;35.70;99.90;;;;;;4948243;23;20055;-93
2022/07/21 07:57:54;;;;;;;13.13;12.23;;;35.50;99.90;;;;;;4943406;29;20095;-88
2022/07/21 08:00:32;;;;;;;13.48;12.48;;;35.60;99.90;;;;;;4943148;29;20027;-92
2022/07/21 08:02:59;;;;;;;12.90;11.88;;;35.60;99.70;;;;;;4959396;29;20050;-93
2022/07/21 08:05:25;;;;;;;12.88;12.00;;;35.60;99.80;;;;;;4959057;29;20370;-91
2022/07/21 08:08:15;;;;;;;12.57;11.70;;;35.70;99.70;;;;;;4958777;29;20031;-94
2022/07/21 08:13:41;;;;;;;12.93;12.05;;;35.60;99.20;;;;;;5085276;23;20051;-94
2022/07/21 08:16:15;;;;;;;12.20;11.50;;;35.50;99.60;;;;;;4966882;28;20058;-92
2022/07/21 08:18:59;;;;;;;12.15;11.25;;;35.40;99.50;;;;;;4967181;28;20092;-93
2022/07/21 08:21:36;;;;;;;12.15;11.27;;;35.90;98.90;;;;;;4944959;28;20089;-90
2022/07/21 08:24:04;;;;;;;12.50;11.70;;;35.50;99.40;;;;;;4948012;28;20066;-93
2022/07/21 08:26:33;;;;;;;12.35;11.50;;;35.10;99.50;;;;;;4960852;28;20117;-93
2022/07/21 08:29:04;;;;;;;12.75;11.77;;;35.50;99.40;;;;;;4945554;28;20117;-91
2022/07/21 08:31:31;;;;;;;12.82;12.02;;;35.40;98.60;;;;;;4973527;23;20075;-92
2022/07/21 08:34:01;;;;;;;11.95;11.25;;;35.30;98.30;;;;;;4941701;29;20110;-91
2022/07/21 08:36:28;;;;;;;12.00;11.18;;;35.30;99.20;;;;;;4941045;28;20043;-90
2022/07/21 08:38:57;;;;;;;12.30;11.40;;;35.40;99.90;;;;;;4943632;29;20019;-92
2022/07/21 08:41:27;;;;;;;11.20;10.40;;;35.50;99.90;;;;;;4942274;29;20050;-92
2022/07/21 08:43:56;;;;;;;10.98;10.25;;;35.20;99.90;;;;;;4942090;29;20122;-92
2022/07/21 08:49:52;;;;;;;11.50;10.73;;;35.30;99.90;;;;;;4847598;29;20089;-92
2022/07/21 08:52:34;;;;;;;11.52;10.73;;;35.40;99.90;;;;;;4846627;29;20437;-92
2022/07/21 08:55:05;;;;;;;11.07;10.07;;;35.30;99.90;;;;;;4846866;29;20033;-91
2022/07/21 08:57:37;;;;;;;10.80;10.05;;;34.90;99.90;;;;;;4848435;29;20086;-92
2022/07/21 09:03:26;;;;;;;10.98;10.18;;;35.40;99.90;;;;;;5092409;23;20055;-92
2022/07/21 09:06:15;;;;;;;10.73;10.02;;;35.40;99.90;;;;;;4956490;28;20113;-93
2022/07/21 09:08:49;;;;;;;11.23;10.52;;;35.50;99.90;;;;;;4954020;28;20118;-92
2022/07/21 09:14:43;;;;;;;11.20;9.98;;;35.10;99.90;;;;;;5134634;23;20077;-96
2022/07/21 09:17:39;;;;;;;10.32;9.60;;;35.20;99.90;;;;;;4961902;28;20569;-93
2022/07/21 09:20:25;;;;;;;10.50;9.77;;;35.50;99.90;;;;;;4958723;28;20529;-92
2022/07/21 09:23:19;;;;;;;10.85;10.15;;;35.40;99.90;;;;;;4963450;28;20084;-93
2022/07/21 09:25:52;;;;;;;10.80;10.10;;;35.30;99.90;;;;;;4963450;28;20026;-94
2022/07/21 09:28:30;;;;;;;10.40;9.60;;;35.00;99.90;;;;;;4962857;28;20034;-91
2022/07/21 09:31:03;;;;;;;11.38;10.20;;;34.60;99.90;;;;;;4952357;29;20063;-92
2022/07/21 09:33:37;;;;;;;11.05;9.95;;;34.50;99.90;;;;;;4940194;29;20035;-94
2022/07/21 09:36:19;;;;;;;10.52;9.80;;;34.70;99.90;;;;;;4962978;28;20058;-93
2022/07/21 09:39:03;;;;;;;10.80;10.10;;;34.70;99.90;;;;;;4951889;28;20484;-93
2022/07/21 09:41:33;;;;;;;11.05;10.25;;;34.20;99.90;;;;;;4951404;28;20137;-93
2022/07/21 09:43:59;;;;;;;10.65;10.05;;;34.40;99.90;;;;;;4951292;28;20031;-93
2022/07/21 09:58:18;;;;;;;11.25;10.65;;;34.10;99.90;;;;;;4994274;23;20141;-95
2022/07/21 10:02:02;;;;;;;;;;;;;;;;;;;;;
2022/07/21 10:08:44;;;;;;;11.10;10.38;;;34.30;99.80;;;;;;4926503;29;20091;-93
2022/07/21 10:11:46;;;;;;;;;;;;;;;;;;;;;
2022/07/21 10:14:42;;;;;;;11.60;10.80;;;34.00;99.90;;;;;;4928042;29;20092;-93
2022/07/21 10:17:35;;;;;;;11.93;11.00;;;33.90;99.90;;;;;;4919762;29;20048;-92
2022/07/21 10:20:31;;;;;;;12.15;11.25;;;33.90;99.60;;;;;;4902187;29;20036;-93
2022/07/21 10:23:24;;;;;;;11.45;10.85;;;33.90;99.20;;;;;;4905569;29;20058;-93
2022/07/21 10:26:32;;;;;;;11.75;11.00;;;34.00;99.20;;;;;;4877301;29;20499;-93
2022/07/21 10:28:58;;;;;;;11.75;10.95;;;34.00;99.90;;;;;;4812848;29;20120;-90
2022/07/21 10:31:29;;;;;;;11.60;10.88;;;33.90;99.90;;;;;;4797856;29;20505;-92
2022/07/21 10:34:02;;;;;;;12.25;10.65;;;34.00;98.80;;;;;;4814748;29;20034;-91
2022/07/21 10:36:35;;;;;;;11.20;10.38;;;34.00;99.40;;;;;;4828432;29;20034;-92
2022/07/21 10:39:10;;;;;;;11.00;10.35;;;34.20;99.20;;;;;;4827200;29;20042;-91
2022/07/21 10:41:39;;;;;;;10.93;10.20;;;34.20;98.50;;;;;;4828004;29;20118;-92
2022/07/21 10:44:27;;;;;;;10.95;10.25;;;34.40;97.90;;;;;;4850672;29;20046;-93
2022/07/21 10:47:30;;;;;;;11.50;10.70;;;34.60;97.00;;;;;;4869217;29;20395;-92
2022/07/21 10:50:07;;;;;;;11.00;10.20;;;34.90;96.20;;;;;;4870605;29;20048;-94
2022/07/21 10:52:39;;;;;;;11.30;10.70;;;34.90;95.40;;;;;;4849925;29;20041;-90
2022/07/21 10:55:26;;;;;;;11.80;10.90;;;34.70;95.60;;;;;;4849227;29;20132;-90
2022/07/21 10:58:14;;;;;;;11.52;10.50;;;34.80;94.90;;;;;;4846943;29;20146;-92
2022/07/21 11:00:53;;;;;;;11.93;11.02;;;34.50;93.90;;;;;;4921421;29;20054;-91
2022/07/21 11:03:31;;;;;;;11.73;10.93;;;34.40;94.60;;;;;;4927622;29;20043;-92
2022/07/21 11:06:09;;;;;;;12.45;11.43;;;34.50;94.30;;;;;;4927195;29;20054;-91
2022/07/21 11:08:39;;;;;;;11.25;10.65;;;34.50;94.00;;;;;;4929934;29;20103;-91
2022/07/21 11:11:10;;;;;;;12.57;11.57;;;34.70;93.50;;;;;;4931713;29;20020;-91
2022/07/21 11:13:58;;;;;;;11.65;11.05;;;34.80;93.00;;;;;;4942115;29;20098;-88
2022/07/21 11:16:43;;;;;;;12.10;11.30;;;34.70;93.40;;;;;;4926407;29;20437;-92
2022/07/21 11:19:29;;;;;;;12.88;11.55;;;34.70;93.30;;;;;;4927131;29;20047;-92
2022/07/21 11:21:58;;;;;;;11.82;11.05;;;34.60;93.60;;;;;;4925943;29;20043;-92
2022/07/21 11:24:26;;;;;;;11.38;10.68;;;34.70;92.90;;;;;;4939775;29;20142;-93
2022/07/21 11:26:58;;;;;;;11.75;10.95;;;34.60;93.20;;;;;;4942503;29;20110;-90
2022/07/21 11:29:26;;;;;;;12.40;11.48;;;34.60;93.20;;;;;;4942570;29;20027;-91
2022/07/21 11:31:53;;;;;;;12.45;11.45;;;34.70;93.30;;;;;;4942463;29;20030;-91
2022/07/21 11:34:20;;;;;;;12.38;11.40;;;34.80;93.50;;;;;;4942699;29;20045;-93
2022/07/21 11:36:46;;;;;;;13.05;11.95;;;35.00;93.90;;;;;;4928641;29;20118;-93
2022/07/21 11:39:15;;;;;;;12.60;11.70;;;35.20;93.80;;;;;;4919892;29;20038;-93
2022/07/21 11:41:45;;;;;;;12.50;11.77;;;34.90;94.30;;;;;;4920857;29;20040;-91
2022/07/21 11:44:22;;;;;;;13.43;12.38;;;35.10;94.10;;;;;;4920350;29;20055;-93
2022/07/21 11:46:55;;;;;;;13.02;12.18;;;35.00;95.00;;;;;;4922774;29;20039;-92
2022/07/21 11:49:25;;;;;;;13.73;12.60;;;34.80;94.90;;;;;;4923794;29;20031;-91
2022/07/21 11:51:57;;;;;;;13.20;12.13;;;34.60;95.30;;;;;;4923506;29;20112;-93
2022/07/21 11:54:31;;;;;;;12.53;11.50;;;34.60;95.40;;;;;;4919482;29;20103;-92
2022/07/21 11:57:00;;;;;;;12.45;11.55;;;34.60;94.70;;;;;;4943333;28;20043;-92
2022/07/21 11:59:28;;;;;;;12.80;12.00;;;34.60;95.00;;;;;;4923011;29;20055;-93
2022/07/21 12:02:01;;;;;;;12.02;11.10;;;35.00;94.50;;;;;;4922536;29;20067;-91
2022/07/21 12:04:36;;;;;;;11.30;10.70;;;35.00;94.90;;;;;;4922899;29;20024;-92
2022/07/21 12:07:07;;;;;;;13.13;12.27;;;34.90;94.60;;;;;;4922902;29;20028;-92
2022/07/21 12:09:34;;;;;;;11.82;10.90;;;35.20;94.50;;;;;;4923248;29;20027;-91
2022/07/21 12:12:04;;;;;;;12.50;11.80;;;35.10;94.80;;;;;;4922060;29;20028;-91
2022/07/21 12:14:49;;;;;;;12.02;11.20;;;34.80;92.80;;;;;;4924451;29;20035;-89
2022/07/21 12:17:56;;;;;;;11.88;11.07;;;34.60;92.90;;;;;;4922666;29;20115;-89
2022/07/21 12:20:36;;;;;;;11.88;11.15;;;34.70;93.80;;;;;;4918877;29;20044;-90
2022/07/21 12:23:23;;;;;;;11.98;11.23;;;34.40;93.80;;;;;;4902939;29;20054;-93
2022/07/21 12:25:51;;;;;;;11.85;11.15;;;34.40;93.70;;;;;;4903472;29;20040;-90
2022/07/21 12:28:17;;;;;;;11.48;10.88;;;34.60;93.60;;;;;;4903395;29;20056;-92
2022/07/21 12:30:49;;;;;;;12.10;11.30;;;34.60;93.30;;;;;;4902815;29;20070;-92
2022/07/21 12:33:28;;;;;;;11.40;10.80;;;34.60;93.80;;;;;;4918472;29;20032;-92
2022/07/21 12:36:04;;;;;;;11.80;11.00;;;34.80;93.20;;;;;;4902503;29;20056;-91
2022/07/21 12:38:56;;;;;;;11.30;10.70;;;34.80;94.00;;;;;;4902380;29;20148;-90
2022/07/21 12:41:23;;;;;;;11.40;10.80;;;34.70;93.40;;;;;;4915206;29;20059;-91
2022/07/21 12:44:00;;;;;;;11.77;10.88;;;34.90;93.40;;;;;;4900828;29;20183;-92
2022/07/21 12:46:35;;;;;;;11.23;10.52;;;35.30;93.00;;;;;;4901766;29;20059;-90
2022/07/21 12:49:10;;;;;;;11.80;11.00;;;35.40;92.70;;;;;;4902010;29;20111;-92
2022/07/21 12:51:38;;;;;;;12.32;11.63;;;35.10;94.00;;;;;;4902361;29;20044;-92
2022/07/21 12:54:05;;;;;;;11.40;10.73;;;34.90;93.70;;;;;;4902333;29;20491;-91
2022/07/21 12:56:37;;;;;;;12.02;11.30;;;34.80;92.80;;;;;;4905255;29;20047;-92
2022/07/21 12:59:05;;;;;;;11.80;10.90;;;34.60;93.10;;;;;;4924194;29;20047;-92
2022/07/21 13:01:33;;;;;;;11.10;10.35;;;34.70;92.70;;;;;;4922388;29;20119;-92
2022/07/21 13:04:02;;;;;;;11.52;10.80;;;34.90;92.80;;;;;;4937782;29;20039;-91
2022/07/21 13:06:29;;;;;;;11.65;10.77;;;34.80;93.30;;;;;;4937515;29;20094;-90
2022/07/21 13:08:55;;;;;;;11.75;10.90;;;34.50;93.00;;;;;;4921722;29;20102;-90
2022/07/21 13:11:22;;;;;;;11.57;10.90;;;34.70;92.60;;;;;;4921729;29;20023;-91
2022/07/21 13:13:50;;;;;;;12.10;10.90;;;34.90;93.80;;;;;;4921645;29;20036;-92
2022/07/21 13:16:19;;;;;;;11.63;11.02;;;34.70;94.40;;;;;;4921624;29;20028;-91
2022/07/21 13:18:46;;;;;;;11.15;10.63;;;34.80;93.10;;;;;;4927538;29;20039;-92
2022/07/21 13:21:13;;;;;;;11.80;10.88;;;34.70;93.60;;;;;;4935433;29;20036;-90
2022/07/21 13:23:43;;;;;;;11.88;11.18;;;35.00;93.20;;;;;;4926013;29;20083;-93
2022/07/21 13:26:25;;;;;;;11.90;11.20;;;35.10;94.00;;;;;;4924472;29;20059;-93
2022/07/21 13:28:54;;;;;;;11.60;10.90;;;35.20;93.50;;;;;;4929151;29;20038;-93
2022/07/21 13:31:24;;;;;;;11.75;11.05;;;35.30;93.20;;;;;;4932922;29;20103;-92
2022/07/21 13:33:51;;;;;;;12.30;11.30;;;34.80;93.10;;;;;;4934942;29;20047;-91